Humidity-temperature Sensor

Selected Measurement Type: Air Temperature

 
Air Temperature [°C]     6 entries per hour
Showing data from 4/19/2015 (15:40:00 Z) to 4/12/2015 (00:01:00 Z)
Previous Next [ Day | 3-Days | 7-Days ]
First Last
Prev [ Day | 3-Days | 7-Days ] Next
First Last

Start Time:     :
End Time:     :     
Time (in GMT) :00 :50 :40 :30 :20 :10
Previous Next [ Day | 3-Days | 7-Days ]
First Last
Prev [ Day | 3-Days | 7-Days ] Next
First Last


123 => good data
MM => data is determined as missing
-- => data not received/configured
Back to Top Back to Top
4/19/2015 16:00 to 15:10 -- -- 27.43 27.45 27.29 27.29
4/19/2015 15:00 to 14:10 27.37 27.42 27.48 27.37 27.48 27.39
4/19/2015 14:00 to 13:10 27.33 27.27 27.39 27.36 27.22 27.15
4/19/2015 13:00 to 12:10 27.20 27.09 27.15 26.95 27.16 27.04
4/19/2015 12:00 to 11:10 -- -- -- -- -- --
4/19/2015 11:00 to 10:10 27.26 26.74 27.22 27.25 27.24 27.27
4/19/2015 10:00 to 9:10 27.25 27.29 27.17 27.24 27.24 27.32
4/19/2015 09:00 to 8:10 27.27 27.23 27.26 27.35 27.27 27.17
4/19/2015 08:00 to 7:10 27.11 27.13 27.20 27.19 27.27 27.28
4/19/2015 07:00 to 6:10 27.14 27.22 27.29 27.25 27.29 27.39
4/19/2015 06:00 to 5:10 27.42 27.43 27.38 27.34 27.37 27.50
4/19/2015 05:00 to 4:10 27.36 27.35 27.30 27.35 27.55 27.52
4/19/2015 04:00 to 3:10 27.49 27.46 27.45 27.49 27.50 27.51
4/19/2015 03:00 to 2:10 27.53 27.46 27.48 27.43 27.33 27.38
4/19/2015 02:00 to 1:10 27.44 27.37 27.38 27.37 27.24 27.36
4/19/2015 01:00 to 0:10 27.30 27.32 27.41 27.40 27.55 27.43
4/19/2015 00:00 to 23:10 27.51 27.59 27.69 27.71 27.79 27.73
4/18/2015 23:00 to 22:10 27.74 27.71 27.71 27.68 27.66 27.75
4/18/2015 22:00 to 21:10 27.75 27.71 27.80 27.65 27.64 27.80
4/18/2015 21:00 to 20:10 27.74 27.65 27.67 27.64 27.56 27.68
4/18/2015 20:00 to 19:10 27.63 27.64 27.73 27.59 27.58 27.50
4/18/2015 19:00 to 18:10 27.65 27.50 27.47 27.51 27.56 27.65
4/18/2015 18:00 to 17:10 27.61 27.75 27.74 27.65 27.59 27.69
4/18/2015 17:00 to 16:10 27.55 27.56 27.51 27.28 27.29 27.29
4/18/2015 16:00 to 15:10 27.22 27.02 26.74 26.33 26.15 26.96
4/18/2015 15:00 to 14:10 27.28 27.63 27.53 27.61 27.58 27.59
4/18/2015 14:00 to 13:10 27.49 27.52 27.57 27.46 27.45 27.35
4/18/2015 13:00 to 12:10 27.34 27.29 27.28 27.27 27.19 27.25
4/18/2015 12:00 to 11:10 27.29 27.31 27.26 27.26 27.06 27.21
4/18/2015 11:00 to 10:10 27.33 27.18 27.16 27.10 27.12 27.18
4/18/2015 10:00 to 9:10 27.17 27.09 27.17 27.10 27.21 27.19
4/18/2015 09:00 to 8:10 27.08 27.30 27.16 27.23 27.21 27.26
4/18/2015 08:00 to 7:10 27.22 27.24 27.27 27.34 27.25 27.27
4/18/2015 07:00 to 6:10 27.33 27.35 27.34 27.44 27.41 27.36
4/18/2015 06:00 to 5:10 27.30 27.30 27.31 27.28 27.42 27.41
4/18/2015 05:00 to 4:10 27.41 27.41 27.37 27.45 27.50 27.55
4/18/2015 04:00 to 3:10 27.55 27.47 27.46 27.53 27.57 27.53
4/18/2015 03:00 to 2:10 27.39 27.49 27.55 27.31 27.45 27.47
4/18/2015 02:00 to 1:10 27.31 27.53 27.30 27.49 27.53 27.44
4/18/2015 01:00 to 0:10 27.41 27.41 27.48 27.47 27.57 27.37
4/18/2015 00:00 to 23:10 27.46 27.62 27.69 27.70 27.72 27.72
4/17/2015 23:00 to 22:10 27.89 27.81 27.86 27.81 27.70 27.73
4/17/2015 22:00 to 21:10 27.83 27.94 27.72 27.85 27.77 27.79
4/17/2015 21:00 to 20:10 27.75 27.77 27.59 27.74 27.68 27.59
4/17/2015 20:00 to 19:10 27.78 27.59 27.64 27.64 27.62 27.56
4/17/2015 19:00 to 18:10 27.67 27.54 27.52 27.57 27.59 27.59
4/17/2015 18:00 to 17:10 27.54 27.43 27.59 27.60 27.62 27.51
4/17/2015 17:00 to 16:10 27.55 27.62 27.42 27.55 27.54 27.41
4/17/2015 16:00 to 15:10 27.47 27.34 27.45 27.46 27.58 27.47
4/17/2015 15:00 to 14:10 27.49 27.42 27.44 27.42 27.40 27.49
4/17/2015 14:00 to 13:10 27.40 27.48 27.42 27.44 27.33 27.31
4/17/2015 13:00 to 12:10 27.10 27.18 27.18 27.03 27.04 27.09
4/17/2015 12:00 to 11:10 27.00 26.98 27.11 26.97 27.01 27.04
4/17/2015 11:00 to 10:10 27.16 27.02 26.97 27.01 27.17 26.90
4/17/2015 10:00 to 9:10 27.08 27.11 27.18 26.99 27.12 27.06
4/17/2015 09:00 to 8:10 27.09 26.97 27.05 27.14 27.22 27.22
4/17/2015 08:00 to 7:10 27.20 27.27 27.24 27.30 27.18 27.27
4/17/2015 07:00 to 6:10 27.23 27.23 27.35 27.44 27.41 27.55
4/17/2015 06:00 to 5:10 27.45 27.35 27.52 27.53 27.39 27.42
4/17/2015 05:00 to 4:10 27.58 27.58 27.48 27.43 27.42 27.44
4/17/2015 04:00 to 3:10 27.48 27.63 27.68 27.58 27.60 27.63
4/17/2015 03:00 to 2:10 27.64 27.55 27.66 27.50 27.66 27.61
4/17/2015 02:00 to 1:10 27.67 27.63 27.52 27.67 27.63 27.67
4/17/2015 01:00 to 0:10 27.60 27.52 27.62 27.61 27.66 27.59
4/17/2015 00:00 to 23:10 27.67 27.66 27.75 27.86 27.84 27.82
4/16/2015 23:00 to 22:10 27.80 27.67 27.66 27.74 27.88 27.86
4/16/2015 22:00 to 21:10 27.96 27.84 27.83 27.77 27.65 27.66
4/16/2015 21:00 to 20:10 27.62 27.65 27.77 27.75 27.74 27.68
4/16/2015 20:00 to 19:10 27.70 27.68 27.80 27.71 27.58 27.84
4/16/2015 19:00 to 18:10 27.86 27.91 27.91 27.88 27.82 27.68
4/16/2015 18:00 to 17:10 27.66 27.83 27.81 27.75 27.89 27.91
4/16/2015 17:00 to 16:10 27.83 27.34 26.64 26.69 27.15 27.34
4/16/2015 16:00 to 15:10 27.27 27.19 26.72 26.57 26.36 26.26
4/16/2015 15:00 to 14:10 26.05 25.85 25.44 25.86 25.99 26.00
4/16/2015 14:00 to 13:10 25.74 25.97 26.25 25.62 25.66 26.14
4/16/2015 13:00 to 12:10 26.67 26.63 26.30 26.51 26.06 26.35
4/16/2015 12:00 to 11:10 26.40 26.40 26.55 26.54 26.63 26.59
4/16/2015 11:00 to 10:10 26.58 26.34 26.42 26.38 26.26 26.42
4/16/2015 10:00 to 9:10 26.49 26.45 26.55 26.47 26.57 26.50
4/16/2015 09:00 to 8:10 26.33 26.27 26.71 26.80 26.70 26.88
4/16/2015 08:00 to 7:10 26.76 26.78 26.85 26.81 26.94 27.15
4/16/2015 07:00 to 6:10 27.08 27.05 26.93 26.85 26.85 26.86
4/16/2015 06:00 to 5:10 26.90 26.91 26.82 26.89 26.85 26.85
4/16/2015 05:00 to 4:10 26.93 27.02 27.04 26.87 26.84 26.89
4/16/2015 04:00 to 3:10 26.83 26.90 26.66 26.58 26.69 26.60
4/16/2015 03:00 to 2:10 26.49 26.61 26.36 26.48 26.59 26.36
4/16/2015 02:00 to 1:10 26.33 26.23 26.24 26.33 26.31 26.20
4/16/2015 01:00 to 0:10 26.28 26.26 26.35 26.61 26.21 25.64
4/16/2015 00:00 to 23:10 25.44 25.17 25.12 25.05 25.05 24.95
4/15/2015 23:00 to 22:10 25.26 25.16 25.33 26.19 26.76 26.86
4/15/2015 22:00 to 21:10 26.77 26.62 26.35 26.12 26.36 26.64
4/15/2015 21:00 to 20:10 26.44 26.26 25.79 26.25 26.57 26.74
4/15/2015 20:00 to 19:10 26.46 26.70 26.61 26.42 26.39 26.48
4/15/2015 19:00 to 18:10 26.67 26.67 26.47 26.47 26.26 26.51
4/15/2015 18:00 to 17:10 26.54 26.36 26.29 25.99 26.09 26.19
4/15/2015 17:00 to 16:10 26.22 26.68 26.32 26.65 26.72 27.01
4/15/2015 16:00 to 15:10 27.33 27.31 27.24 27.34 27.19 27.03
4/15/2015 15:00 to 14:10 26.71 26.66 26.18 26.76 27.11 27.14
4/15/2015 14:00 to 13:10 26.94 26.37 26.52 26.52 26.86 26.79
4/15/2015 13:00 to 12:10 26.87 26.94 27.14 26.90 26.93 26.89
4/15/2015 12:00 to 11:10 26.85 26.78 26.79 26.77 26.83 26.80
4/15/2015 11:00 to 10:10 26.82 26.74 26.75 26.54 26.55 26.86
4/15/2015 10:00 to 9:10 26.97 26.81 26.84 26.87 26.79 26.88
4/15/2015 09:00 to 8:10 26.84 26.83 26.79 27.00 26.69 26.66
4/15/2015 08:00 to 7:10 26.45 26.62 26.62 26.64 26.70 26.70
4/15/2015 07:00 to 6:10 26.72 26.72 26.89 27.08 26.91 26.92
4/15/2015 06:00 to 5:10 26.80 26.95 26.79 26.82 26.76 26.83
4/15/2015 05:00 to 4:10 26.75 26.91 27.25 27.20 27.17 27.16
4/15/2015 04:00 to 3:10 26.84 26.72 26.91 26.64 26.58 26.75
4/15/2015 03:00 to 2:10 26.79 27.31 27.36 27.26 27.27 27.20
4/15/2015 02:00 to 1:10 27.19 27.20 27.08 27.17 27.12 27.40
4/15/2015 01:00 to 0:10 27.43 27.44 27.40 27.38 27.41 27.49
4/15/2015 00:00 to 23:10 27.49 27.46 27.76 27.69 27.81 27.79
4/14/2015 23:00 to 22:10 27.85 27.56 27.86 27.79 27.68 27.67
4/14/2015 22:00 to 21:10 27.74 27.68 27.70 27.77 27.79 27.60
4/14/2015 21:00 to 20:10 27.69 27.57 27.78 27.72 27.61 27.58
4/14/2015 20:00 to 19:10 27.69 27.59 27.55 27.56 27.49 27.48
4/14/2015 19:00 to 18:10 27.40 27.46 27.50 27.38 27.42 27.44
4/14/2015 18:00 to 17:10 27.38 27.47 27.54 27.43 27.37 27.46
4/14/2015 17:00 to 16:10 27.30 27.32 27.31 27.32 27.25 27.25
4/14/2015 16:00 to 15:10 27.20 27.37 27.31 27.29 27.21 27.21
4/14/2015 15:00 to 14:10 27.29 27.21 27.31 27.28 27.20 27.20
4/14/2015 14:00 to 13:10 27.00 27.09 27.06 26.99 26.98 26.89
4/14/2015 13:00 to 12:10 27.02 27.00 26.91 26.87 26.89 27.02
4/14/2015 12:00 to 11:10 26.87 26.88 26.88 26.96 26.92 26.94
4/14/2015 11:00 to 10:10 26.89 26.79 26.91 26.86 26.92 26.88
4/14/2015 10:00 to 9:10 26.90 26.96 26.85 27.02 26.96 26.90
4/14/2015 09:00 to 8:10 26.98 26.86 26.91 27.03 27.00 27.11
4/14/2015 08:00 to 7:10 26.97 27.05 27.05 27.21 27.10 27.09
4/14/2015 07:00 to 6:10 27.12 27.01 27.05 27.21 27.19 27.15
4/14/2015 06:00 to 5:10 27.06 27.25 27.26 27.21 27.19 27.23
4/14/2015 05:00 to 4:10 27.20 27.25 27.23 27.31 27.41 27.31
4/14/2015 04:00 to 3:10 27.24 27.25 27.15 27.10 27.04 27.01
4/14/2015 03:00 to 2:10 27.11 27.39 27.30 27.35 27.31 27.34
4/14/2015 02:00 to 1:10 27.35 27.38 27.39 27.37 27.36 27.32
4/14/2015 01:00 to 0:10 27.30 27.40 27.32 27.39 27.37 27.39
4/14/2015 00:00 to 23:10 27.38 27.46 27.59 27.64 27.79 27.65
4/13/2015 23:00 to 22:10 27.48 27.52 27.32 27.47 27.50 27.40
4/13/2015 22:00 to 21:10 27.34 27.54 27.33 27.37 27.19 27.12
4/13/2015 21:00 to 20:10 27.66 27.58 27.42 27.52 27.37 27.11
4/13/2015 20:00 to 19:10 26.92 27.54 27.67 27.75 27.59 27.51
4/13/2015 19:00 to 18:10 27.64 27.51 27.49 26.34 26.68 27.40
4/13/2015 18:00 to 17:10 27.29 27.39 27.74 27.49 27.62 27.65
4/13/2015 17:00 to 16:10 27.62 27.62 27.50 27.62 27.60 27.53
4/13/2015 16:00 to 15:10 27.54 27.74 27.49 27.22 27.30 27.33
4/13/2015 15:00 to 14:10 27.04 27.17 27.14 26.47 26.32 26.00
4/13/2015 14:00 to 13:10 26.87 26.83 26.59 26.34 26.62 26.83
4/13/2015 13:00 to 12:10 26.69 26.68 26.72 26.54 26.23 25.94
4/13/2015 12:00 to 11:10 26.14 25.91 26.19 26.24 26.38 26.42
4/13/2015 11:00 to 10:10 26.33 26.20 26.51 26.71 26.60 26.74
4/13/2015 10:00 to 9:10 26.87 26.80 26.81 27.03 27.05 26.90
4/13/2015 09:00 to 8:10 26.99 26.88 26.98 27.01 26.97 27.04
4/13/2015 08:00 to 7:10 26.92 26.98 26.88 26.19 25.95 25.61
4/13/2015 07:00 to 6:10 25.96 26.23 26.32 26.45 26.93 27.47
4/13/2015 06:00 to 5:10 27.38 27.38 27.42 27.44 27.38 27.43
4/13/2015 05:00 to 4:10 27.49 27.35 27.40 27.41 27.34 27.40
4/13/2015 04:00 to 3:10 27.18 27.36 27.23 27.15 27.12 27.16
4/13/2015 03:00 to 2:10 27.37 27.39 27.26 26.99 26.76 26.73
4/13/2015 02:00 to 1:10 26.52 26.11 26.19 26.22 26.64 27.48
4/13/2015 01:00 to 0:10 27.42 27.35 27.39 27.35 27.35 27.41
4/13/2015 00:00 to 23:10 27.49 27.44 27.53 27.73 27.33 27.54
4/12/2015 23:00 to 22:10 27.90 28.00 28.00 27.81 27.85 27.80
4/12/2015 22:00 to 21:10 27.75 27.79 27.73 27.78 27.73 27.73
4/12/2015 21:00 to 20:10 27.75 27.75 27.80 27.82 27.81 27.66
4/12/2015 20:00 to 19:10 27.65 27.66 27.59 27.56 27.71 27.74
4/12/2015 19:00 to 18:10 27.69 27.83 27.85 27.75 27.75 27.75
4/12/2015 18:00 to 17:10 27.66 27.72 27.60 27.69 27.56 27.57
4/12/2015 17:00 to 16:10 27.61 27.65 27.57 27.55 27.64 27.59
4/12/2015 16:00 to 15:10 27.51 27.59 27.55 27.44 27.46 27.52
4/12/2015 15:00 to 14:10 27.57 27.45 27.50 27.54 27.55 27.51
4/12/2015 14:00 to 13:10 27.71 27.46 27.42 27.57 27.48 27.32
4/12/2015 13:00 to 12:10 27.41 27.30 27.29 27.23 27.23 27.10
4/12/2015 12:00 to 11:10 27.20 27.09 27.15 27.17 27.21 27.14
4/12/2015 11:00 to 10:10 27.12 27.17 27.10 26.97 27.20 27.19
4/12/2015 10:00 to 9:10 27.16 27.13 27.16 27.24 27.24 27.32
4/12/2015 09:00 to 8:10 27.16 27.29 27.24 27.29 27.26 27.38
4/12/2015 08:00 to 7:10 27.24 27.28 27.27 27.21 27.30 27.30
4/12/2015 07:00 to 6:10 27.35 27.22 27.27 27.30 27.30 27.24
4/12/2015 06:00 to 5:10 27.38 27.41 27.36 27.39 27.31 27.49
4/12/2015 05:00 to 4:10 27.42 27.51 27.36 27.36 27.56 27.54
4/12/2015 04:00 to 3:10 27.51 27.51 27.45 27.54 27.54 27.47
4/12/2015 03:00 to 2:10 27.62 27.50 27.63 27.58 27.53 27.57
4/12/2015 02:00 to 1:10 27.51 27.47 27.53 27.60 27.58 27.72
4/12/2015 01:00 to 0:10 27.61 27.65 27.69 27.73 27.58 27.67